Terminal Aerodrome Forecast
Issued by NWS North Platte, NE

Home | Current Version | Previous Version | Graphics & Text | Print | Product List | Glossary On
Versions: 1 2 3 4 5 6 7 8 9 10 11 12 13 14 15 16 17 18 19 20 21 22 23
088
FTUS43 KLBF 240127 AAA
TAFVTN
TAF AMD
KVTN 240127Z 2401/2424 01018G27KT 1/2SM SN BLSN VV008
      TEMPO 2401/2402 1/4SM SN BLSN
     FM240300 01016G24KT 1SM -SN BLSN OVC008
     FM241200 36014G20KT 2SM -SN BLSN BKN008 OVC015
     FM241500 35014G20KT 5SM BLSN VCSH OVC015
     FM241800 35012G18KT P6SM BKN025=

USA.gov is the U.S. government's official web portal to all federal, state and local government web resources and services.